Time;durP1;ratioP1;P1;durP2;ratioP2;P2;SDS_P1;SDS_P2;PMS_P1;PMS_P2;Temp;Humidity;BMP_temperature;BMP_pressure;BME280_temperature;BME280_humidity;BME280_pressure;Samples;Min_cycle;Max_cycle;Signal;HPM_P1;HPM_P2
2023/08/06 00:01:48;;;;;;;8.87;3.60;;;;;;;-145.18;100.00;46633.06;4955262;28;20031;-66
2023/08/06 00:04:13;;;;;;;7.20;3.80;;;;;;;-145.18;100.00;46636.94;4956463;29;20035;-66
2023/08/06 00:06:38;;;;;;;7.97;3.80;;;;;;;-145.18;100.00;46635.00;4956145;28;20483;-66
2023/08/06 00:09:04;;;;;;;6.57;4.73;;;;;;;-145.18;100.00;46629.13;4956100;28;20023;-66
2023/08/06 00:11:29;;;;;;;7.47;4.30;;;;;;;-145.18;100.00;46629.13;4956297;28;20510;-66
2023/08/06 00:13:54;;;;;;;5.97;4.00;;;;;;;-145.18;100.00;46631.09;4956280;28;20117;-66
2023/08/06 00:16:20;;;;;;;5.83;4.10;;;;;;;-145.18;100.00;46636.94;4956341;28;20035;-66
2023/08/06 00:18:45;;;;;;;7.60;3.73;;;;;;;-145.18;100.00;46627.19;4955623;28;20062;-66
2023/08/06 00:21:12;;;;;;;5.80;3.73;;;;;;;-145.18;100.00;46627.19;4956013;28;20094;-66
2023/08/06 00:23:37;;;;;;;6.70;4.00;;;;;;;-145.18;100.00;46635.00;4955863;28;20031;-66
2023/08/06 00:26:03;;;;;;;9.67;3.73;;;;;;;-145.18;100.00;46635.00;4954721;28;20450;-66
2023/08/06 00:28:28;;;;;;;7.10;3.60;;;;;;;-145.18;100.00;46631.09;4955709;28;20062;-66
2023/08/06 00:30:54;;;;;;;5.53;3.53;;;;;;;-145.18;100.00;46635.00;4954448;28;20081;-65
2023/08/06 00:33:20;;;;;;;6.73;4.00;;;;;;;-145.18;100.00;46638.91;4953743;28;20043;-66
2023/08/06 00:35:46;;;;;;;5.10;3.43;;;;;;;-145.18;100.00;46633.06;4954694;29;20090;-66
2023/08/06 00:38:12;;;;;;;6.57;3.70;;;;;;;-145.18;100.00;46636.94;4955500;28;20035;-65
2023/08/06 00:40:37;;;;;;;5.33;3.50;;;;;;;-145.18;100.00;46636.94;4955484;28;20038;-65
2023/08/06 00:43:02;;;;;;;6.07;3.30;;;;;;;-145.18;100.00;46633.06;4955443;29;20055;-66
2023/08/06 00:45:29;;;;;;;4.47;3.30;;;;;;;-145.18;100.00;46633.06;4954266;28;20514;-65
2023/08/06 00:47:55;;;;;;;5.37;3.17;;;;;;;-145.18;100.00;46636.94;4955416;28;20024;-65
2023/08/06 00:50:22;;;;;;;5.00;3.40;;;;;;;-145.18;100.00;46635.00;4955286;28;20530;-66
2023/08/06 00:52:48;;;;;;;5.13;2.80;;;;;;;-145.18;100.00;46638.91;4955224;28;20039;-66
2023/08/06 00:55:15;;;;;;;6.47;3.17;;;;;;;-145.18;100.00;46640.88;4955478;28;20035;-66
2023/08/06 00:57:41;;;;;;;4.47;2.90;;;;;;;-145.18;100.00;46636.94;4955320;28;20135;-66
2023/08/06 01:00:07;;;;;;;4.53;3.07;;;;;;;-145.18;100.00;46638.91;4954965;28;20396;-66
2023/08/06 01:02:32;;;;;;;6.40;3.17;;;;;;;-145.18;100.00;46635.00;4955271;28;20114;-66
2023/08/06 01:04:58;;;;;;;4.60;3.10;;;;;;;-145.18;100.00;46640.88;4955448;28;20166;-66
2023/08/06 01:07:32;;;;;;;5.87;3.17;;;;;;;-145.18;100.00;46638.91;4950015;29;20119;-66
2023/08/06 01:10:57;;;;;;;4.43;3.07;;;;;;;-145.18;100.00;46638.91;4948934;28;20062;-62
2023/08/06 01:13:39;;;;;;;5.00;3.23;;;;;;;-145.18;100.00;46636.94;4919032;28;20039;-62
2023/08/06 01:16:06;;;;;;;3.87;2.70;;;;;;;-145.18;100.00;46640.88;4955266;28;20073;-62
2023/08/06 01:18:32;;;;;;;6.63;3.13;;;;;;;-145.18;100.00;46638.91;4954957;28;20035;-62
2023/08/06 01:20:57;;;;;;;4.63;3.23;;;;;;;-145.18;100.00;46640.88;4954874;28;20031;-62
2023/08/06 01:23:24;;;;;;;6.77;3.30;;;;;;;-145.18;100.00;46636.94;4954748;28;20034;-62
2023/08/06 01:26:00;;;;;;;3.90;3.03;;;;;;;-145.18;100.00;46638.91;4954991;28;20156;-63
2023/08/06 01:28:57;;;;;;;5.60;2.90;;;;;;;-145.18;100.00;46644.78;4954473;28;20037;-62
2023/08/06 01:31:27;;;;;;;6.10;3.20;;;;;;;-145.18;100.00;46636.94;4946139;28;20126;-62
2023/08/06 01:33:53;;;;;;;4.13;3.00;;;;;;;-145.18;100.00;46640.88;4954495;28;20038;-62
2023/08/06 01:36:20;;;;;;;4.60;3.03;;;;;;;-145.18;100.00;46642.81;4954424;28;20031;-62
2023/08/06 01:38:46;;;;;;;7.80;3.33;;;;;;;-145.18;100.00;46644.78;4954411;28;20063;-62
2023/08/06 01:41:11;;;;;;;5.37;3.27;;;;;;;-145.18;100.00;46638.91;4954460;28;20062;-63
2023/08/06 01:43:37;;;;;;;5.03;3.53;;;;;;;-145.18;100.00;46638.91;4952861;28;20062;-63
2023/08/06 01:46:02;;;;;;;6.10;2.83;;;;;;;-145.18;100.00;46640.88;4953825;28;20038;-62
2023/08/06 01:48:28;;;;;;;5.73;3.33;;;;;;;-145.18;100.00;46633.06;4954654;28;20473;-62
2023/08/06 01:50:53;;;;;;;5.07;3.60;;;;;;;-145.18;100.00;46640.88;4954152;28;20070;-62
2023/08/06 01:53:19;;;;;;;6.07;3.97;;;;;;;-145.18;100.00;46642.81;4954683;28;20042;-62
2023/08/06 01:55:50;;;;;;;5.10;3.63;;;;;;;-145.18;100.00;46635.00;4954008;28;20031;-62
2023/08/06 01:58:15;;;;;;;7.67;3.80;;;;;;;-145.18;100.00;46636.94;4952940;28;20031;-62
2023/08/06 02:00:41;;;;;;;7.30;3.97;;;;;;;-145.18;100.00;46636.94;4954179;28;20502;-62
2023/08/06 02:03:06;;;;;;;9.10;4.30;;;;;;;-145.18;100.00;46640.88;4954369;28;20055;-62
2023/08/06 02:05:32;;;;;;;7.07;4.17;;;;;;;-145.18;100.00;46636.94;4950207;28;20027;-62
2023/08/06 02:07:57;;;;;;;6.77;4.10;;;;;;;-145.18;100.00;46636.94;4951441;29;20502;-62
2023/08/06 02:10:23;;;;;;;9.60;4.43;;;;;;;-145.18;100.00;46640.88;4953973;28;20057;-63
2023/08/06 02:12:48;;;;;;;6.60;4.37;;;;;;;-145.18;100.00;46636.94;4954285;28;20174;-63
2023/08/06 02:15:14;;;;;;;7.37;4.17;;;;;;;-145.18;100.00;46636.94;4954177;28;20034;-63
2023/08/06 02:17:39;;;;;;;5.87;4.40;;;;;;;-145.18;100.00;46644.78;4954243;28;20409;-63
2023/08/06 02:20:07;;;;;;;9.20;4.33;;;;;;;-145.18;100.00;46638.91;4952236;28;20130;-63
2023/08/06 02:22:33;;;;;;;6.37;4.37;;;;;;;-145.18;100.00;46636.94;4952506;28;20070;-62
2023/08/06 02:24:59;;;;;;;6.27;4.27;;;;;;;-145.18;100.00;46638.91;4954136;28;20031;-63
2023/08/06 02:27:24;;;;;;;8.53;4.93;;;;;;;-145.18;100.00;46638.91;4953885;28;20039;-63
2023/08/06 02:29:50;;;;;;;5.53;4.17;;;;;;;-145.18;100.00;46638.91;4953811;28;20536;-63
2023/08/06 02:32:15;;;;;;;7.70;4.90;;;;;;;-145.18;100.00;46638.91;4953868;28;20085;-63
2023/08/06 02:34:40;;;;;;;5.90;4.70;;;;;;;-145.18;100.00;46635.00;4953703;28;20027;-64
2023/08/06 02:37:06;;;;;;;7.23;5.17;;;;;;;-145.18;100.00;46636.94;4953650;29;20039;-64
2023/08/06 02:39:31;;;;;;;8.53;5.43;;;;;;;-145.18;100.00;46638.91;4953496;28;20142;-63
2023/08/06 02:41:57;;;;;;;6.50;5.50;;;;;;;-145.18;100.00;46638.91;4952403;29;20038;-64
2023/08/06 02:44:22;;;;;;;9.00;5.43;;;;;;;-145.18;100.00;46635.00;4952168;28;20039;-63
2023/08/06 02:46:47;;;;;;;6.93;5.50;;;;;;;-145.18;100.00;46636.94;4953924;28;20043;-63
2023/08/06 02:49:13;;;;;;;9.23;6.37;;;;;;;-145.18;100.00;46631.09;4953769;28;20116;-63
2023/08/06 02:51:38;;;;;;;10.33;5.13;;;;;;;-145.18;100.00;46636.94;4953661;28;20066;-63
2023/08/06 02:54:03;;;;;;;7.37;5.80;;;;;;;-145.18;100.00;46640.88;4953529;29;20100;-63
2023/08/06 02:56:29;;;;;;;9.77;6.37;;;;;;;-145.18;100.00;46636.94;4949436;28;20039;-64
2023/08/06 02:58:54;;;;;;;6.80;5.40;;;;;;;-145.18;100.00;46636.94;4957520;29;20447;-64
2023/08/06 03:01:19;;;;;;;7.90;5.27;;;;;;;-145.18;100.00;46636.94;4955985;28;20574;-64
2023/08/06 03:03:45;;;;;;;7.90;4.67;;;;;;;-145.18;100.00;46640.88;4957469;29;20035;-64
2023/08/06 03:06:10;;;;;;;6.20;4.33;;;;;;;-145.18;100.00;46631.09;4957569;28;20035;-64
2023/08/06 03:08:36;;;;;;;7.37;3.87;;;;;;;-145.18;100.00;46635.00;4957199;29;20042;-63
2023/08/06 03:11:01;;;;;;;5.87;4.03;;;;;;;-145.18;100.00;46636.94;4957653;28;20031;-64
2023/08/06 03:13:27;;;;;;;5.07;3.60;;;;;;;-145.18;100.00;46635.00;4956986;28;20039;-64
2023/08/06 03:15:58;;;;;;;4.37;3.33;;;;;;;-145.18;100.00;46629.13;4957348;28;20042;-64
2023/08/06 03:18:25;;;;;;;5.77;3.80;;;;;;;-145.18;100.00;46635.00;4957317;28;20765;-64
2023/08/06 03:20:51;;;;;;;4.53;3.37;;;;;;;-145.18;100.00;46633.06;4956654;28;20074;-64
2023/08/06 03:23:17;;;;;;;5.20;3.70;;;;;;;-145.18;100.00;46635.00;4956921;28;20031;-64
2023/08/06 03:25:42;;;;;;;6.23;4.07;;;;;;;-145.18;100.00;46635.00;4935961;29;20032;-64
2023/08/06 03:28:08;;;;;;;5.47;4.07;;;;;;;-145.18;100.00;46633.06;4948855;28;20039;-63
2023/08/06 03:30:33;;;;;;;7.67;5.13;;;;;;;-145.18;100.00;46633.06;4956826;28;20066;-63
2023/08/06 03:32:58;;;;;;;6.03;4.60;;;;;;;-145.18;100.00;46631.09;4957145;29;20522;-63
2023/08/06 03:35:24;;;;;;;6.73;5.07;;;;;;;-145.18;100.00;46627.19;4955515;29;20085;-64
2023/08/06 03:37:49;;;;;;;7.23;4.90;;;;;;;-145.18;100.00;46633.06;4956573;28;20510;-63
2023/08/06 03:40:15;;;;;;;6.57;5.00;;;;;;;-145.18;100.00;46629.13;4956594;28;20119;-64
2023/08/06 03:42:40;;;;;;;8.53;5.13;;;;;;;-145.18;100.00;46631.09;4956456;28;20034;-64
2023/08/06 03:45:06;;;;;;;6.97;4.87;;;;;;;-145.18;100.00;46627.19;4955423;28;20038;-64
2023/08/06 03:47:32;;;;;;;7.07;5.93;;;;;;;-145.18;100.00;46627.19;4956112;28;20039;-64
2023/08/06 03:49:57;;;;;;;6.60;4.97;;;;;;;-145.18;100.00;46629.13;4956449;28;20032;-64
2023/08/06 03:52:23;;;;;;;9.83;5.47;;;;;;;-145.18;100.00;46631.09;4955139;28;20042;-64
2023/08/06 03:54:48;;;;;;;8.63;5.80;;;;;;;-145.18;100.00;46631.09;4956373;29;20042;-64
2023/08/06 03:57:14;;;;;;;10.53;6.10;;;;;;;-145.18;100.00;46629.13;4956477;29;20089;-64
2023/08/06 03:59:39;;;;;;;8.80;6.00;;;;;;;-145.18;100.00;46629.13;4956440;28;20054;-64
2023/08/06 04:02:05;;;;;;;9.20;6.43;;;;;;;-145.18;100.00;46629.13;4956145;28;20027;-64
2023/08/06 04:04:30;;;;;;;9.80;6.90;;;;;;;-145.18;100.00;46629.13;4954723;28;20032;-64
2023/08/06 04:06:55;;;;;;;10.63;7.00;;;;;;;-145.18;100.00;46629.13;4953778;28;20554;-64
2023/08/06 04:09:21;;;;;;;10.93;7.50;;;;;;;-145.18;100.00;46625.22;4956532;28;20031;-64
2023/08/06 04:11:46;;;;;;;11.17;7.50;;;;;;;-145.18;100.00;46633.06;4956301;28;20395;-64
2023/08/06 04:14:11;;;;;;;14.00;7.80;;;;;;;-145.18;100.00;46631.09;4956027;28;20035;-64
2023/08/06 04:16:37;;;;;;;13.23;7.10;;;;;;;-145.18;100.00;46627.19;4956276;28;20035;-64
2023/08/06 04:19:02;;;;;;;11.37;7.50;;;;;;;-145.18;100.00;46629.13;4955231;29;20046;-64
2023/08/06 04:21:28;;;;;;;11.83;8.03;;;;;;;-145.18;100.00;46629.13;4954550;28;20034;-64
2023/08/06 04:23:53;;;;;;;10.23;7.77;;;;;;;-145.18;100.00;46627.19;4956098;28;20392;-64
2023/08/06 04:26:18;;;;;;;12.03;7.77;;;;;;;-145.18;100.00;46627.19;4954390;28;20086;-65
2023/08/06 04:28:44;;;;;;;10.40;7.97;;;;;;;-145.18;100.00;46627.19;4956282;28;20042;-64
2023/08/06 04:31:09;;;;;;;11.70;8.10;;;;;;;-145.18;100.00;46627.19;4942891;29;20439;-64
2023/08/06 04:33:34;;;;;;;16.43;9.03;;;;;;;-145.18;100.00;46627.19;4950435;29;20043;-64
2023/08/06 04:36:00;;;;;;;16.77;10.97;;;;;;;-145.18;100.00;46627.19;4941411;28;20464;-64
2023/08/06 04:38:26;;;;;;;12.93;9.57;;;;;;;-145.18;100.00;46625.22;4947293;29;20035;-66
2023/08/06 04:40:52;;;;;;;12.40;9.27;;;;;;;-145.18;100.00;46627.19;4946769;28;20098;-65
2023/08/06 04:43:17;;;;;;;9.77;6.23;;;;;;;-145.18;100.00;46627.19;4945709;29;20645;-64
2023/08/06 04:45:49;;;;;;;9.17;5.33;;;;;;;-145.18;100.00;46625.22;4934448;28;20047;-65
2023/08/06 04:48:15;;;;;;;6.73;4.37;;;;;;;-145.18;100.00;46625.22;4944902;28;20042;-66
2023/08/06 04:50:48;;;;;;;6.03;4.50;;;;;;;-145.18;100.00;46629.13;4944590;29;20123;-65
2023/08/06 04:53:13;;;;;;;6.33;4.37;;;;;;;-145.18;100.00;46631.09;4939390;29;20462;-66
2023/08/06 04:55:39;;;;;;;5.97;4.17;;;;;;;-145.18;100.00;46629.13;4942740;29;20030;-66
2023/08/06 04:58:04;;;;;;;4.20;2.83;;;;;;;-145.18;100.00;46629.13;4950123;28;20419;-66
2023/08/06 05:00:30;;;;;;;3.47;2.23;;;;;;;-145.18;100.00;46623.28;4955211;28;20581;-65
2023/08/06 05:02:55;;;;;;;5.53;3.03;;;;;;;-145.18;100.00;46623.28;4951221;28;20058;-65
2023/08/06 05:05:20;;;;;;;5.90;2.60;;;;;;;-145.18;100.00;46625.22;4946838;29;20043;-65
2023/08/06 05:07:50;;;;;;;3.60;2.73;;;;;;;-145.18;100.00;46625.22;4944625;29;20110;-65
2023/08/06 05:10:16;;;;;;;4.90;3.07;;;;;;;-145.18;100.00;46623.28;4952895;28;20027;-65
2023/08/06 05:12:41;;;;;;;16.57;2.80;;;;;;;-145.18;100.00;46621.31;4954905;28;20506;-65
2023/08/06 05:15:07;;;;;;;2.73;1.63;;;;;;;-145.18;100.00;46625.22;4954606;28;20034;-66
2023/08/06 05:17:33;;;;;;;4.07;2.07;;;;;;;-145.18;100.00;46621.31;4955012;28;20035;-65
2023/08/06 05:19:59;;;;;;;3.20;2.10;;;;;;;-145.18;100.00;46625.22;4954866;28;20032;-65
2023/08/06 05:22:24;;;;;;;6.60;2.53;;;;;;;-145.18;100.00;46617.41;4954936;28;20124;-66
2023/08/06 05:24:50;;;;;;;5.00;2.90;;;;;;;-145.18;100.00;46625.22;4954465;28;20090;-66
2023/08/06 05:27:15;;;;;;;3.40;2.50;;;;;;;-145.18;100.00;46625.22;4955067;28;20030;-66
2023/08/06 05:29:41;;;;;;;4.47;3.47;;;;;;;-145.18;100.00;46619.38;4954453;29;20026;-67
2023/08/06 05:32:06;;;;;;;9.83;3.53;;;;;;;-145.18;100.00;46621.31;4953408;29;20082;-67
2023/08/06 05:34:32;;;;;;;7.73;3.43;;;;;;;-145.18;100.00;46619.38;4954529;28;20118;-68
2023/08/06 05:36:57;;;;;;;7.27;3.50;;;;;;;-145.18;100.00;46619.38;4954430;29;20655;-70
2023/08/06 05:39:23;;;;;;;7.50;3.50;;;;;;;-145.18;100.00;46621.31;4953231;29;20070;-70
2023/08/06 05:41:48;;;;;;;5.83;3.50;;;;;;;-145.18;100.00;46623.28;4954529;29;20117;-69
2023/08/06 05:44:13;;;;;;;6.57;3.50;;;;;;;-145.18;100.00;46619.38;4954453;28;20110;-69
2023/08/06 05:46:39;;;;;;;5.90;3.33;;;;;;;-145.18;100.00;46621.31;4954791;29;20055;-69
2023/08/06 05:49:05;;;;;;;6.30;4.00;;;;;;;-145.18;100.00;46619.38;4954577;28;20050;-70
2023/08/06 05:51:30;;;;;;;7.57;4.17;;;;;;;-145.18;100.00;46621.31;4947603;28;20067;-69
2023/08/06 05:53:56;;;;;;;7.33;3.33;;;;;;;-145.18;100.00;46621.31;4951515;28;20110;-69
2023/08/06 05:56:21;;;;;;;7.10;3.93;;;;;;;-145.18;100.00;46617.41;4954471;28;20063;-69
2023/08/06 05:58:47;;;;;;;7.83;4.13;;;;;;;-145.18;100.00;46621.31;4954175;28;20073;-69
2023/08/06 06:01:13;;;;;;;6.07;4.03;;;;;;;-145.18;100.00;46619.38;4952646;28;20505;-67
2023/08/06 06:03:38;;;;;;;5.37;3.30;;;;;;;-145.18;100.00;46621.31;4940243;28;20123;-69
2023/08/06 06:06:03;;;;;;;5.83;3.57;;;;;;;-145.18;100.00;46623.28;4954106;28;20027;-69
2023/08/06 06:08:29;;;;;;;7.60;3.37;;;;;;;-145.18;100.00;46621.31;4920627;29;20498;-69
2023/08/06 06:10:54;;;;;;;5.37;3.50;;;;;;;-145.18;100.00;46617.41;4952061;29;20062;-69
2023/08/06 06:13:20;;;;;;;6.67;4.17;;;;;;;-145.18;100.00;46623.28;4946950;28;20569;-69
2023/08/06 06:15:47;;;;;;;5.37;3.83;;;;;;;-145.18;100.00;46623.28;4952760;29;20031;-69
2023/08/06 06:18:13;;;;;;;5.40;3.77;;;;;;;-145.18;100.00;46619.38;4946661;28;20085;-69
2023/08/06 06:20:38;;;;;;;4.40;2.80;;;;;;;-145.18;100.00;46625.22;4953542;28;20471;-69
2023/08/06 06:23:03;;;;;;;6.03;3.70;;;;;;;-145.18;100.00;46619.38;4950351;29;20038;-69
2023/08/06 06:25:29;;;;;;;6.90;3.70;;;;;;;-145.18;100.00;46627.19;4945291;28;20471;-69
2023/08/06 06:27:54;;;;;;;6.57;4.00;;;;;;;-145.18;100.00;46625.22;4953585;28;20035;-69
2023/08/06 06:30:19;;;;;;;10.10;4.27;;;;;;;-145.18;100.00;46625.22;4952047;29;20059;-69
2023/08/06 06:32:45;;;;;;;8.50;4.37;;;;;;;-145.18;100.00;46625.22;4953834;28;20039;-69
2023/08/06 06:35:10;;;;;;;7.30;4.40;;;;;;;-145.18;100.00;46627.19;4945406;29;20520;-69
2023/08/06 06:37:35;;;;;;;6.27;4.40;;;;;;;-145.18;100.00;46625.22;4952403;28;20043;-69
2023/08/06 06:40:01;;;;;;;7.47;4.50;;;;;;;-145.18;100.00;46629.13;4952881;28;20167;-69
2023/08/06 06:42:26;;;;;;;9.17;4.13;;;;;;;-145.18;100.00;46625.22;4950301;29;20036;-68
2023/08/06 06:44:52;;;;;;;6.67;3.90;;;;;;;-145.18;100.00;46627.19;4949707;29;20046;-68
2023/08/06 06:47:17;;;;;;;5.77;3.83;;;;;;;-145.18;100.00;46629.13;4953555;28;20502;-69
2023/08/06 06:49:42;;;;;;;23.50;7.27;;;;;;;-145.18;100.00;46625.22;4951089;28;20060;-68
2023/08/06 06:52:08;;;;;;;11.07;4.47;;;;;;;-145.18;100.00;46621.31;4951713;28;20046;-68
2023/08/06 06:54:33;;;;;;;6.60;3.87;;;;;;;-145.18;100.00;46625.22;4943698;29;20054;-69
2023/08/06 06:56:59;;;;;;;7.37;4.03;;;;;;;-145.18;100.00;46627.19;4952305;29;20027;-69
2023/08/06 06:59:24;;;;;;;11.57;4.80;;;;;;;-145.18;100.00;46629.13;4952178;28;20050;-68
2023/08/06 07:01:49;;;;;;;5.00;3.73;;;;;;;-145.18;100.00;46629.13;4953293;28;20059;-69
2023/08/06 07:04:15;;;;;;;12.20;4.10;;;;;;;-145.18;100.00;46625.22;4949843;28;20038;-68
2023/08/06 07:06:40;;;;;;;12.13;4.97;;;;;;;-145.18;100.00;46631.09;4953688;28;20755;-69
2023/08/06 07:09:05;;;;;;;11.00;4.63;;;;;;;-145.18;100.00;46625.22;4953864;28;20042;-68
2023/08/06 07:11:31;;;;;;;8.70;4.17;;;;;;;-145.18;100.00;46621.31;4953626;28;20054;-69
2023/08/06 07:14:01;;;;;;;6.27;4.67;;;;;;;-145.18;100.00;46623.28;4953726;28;20395;-68
2023/08/06 07:16:26;;;;;;;7.93;4.30;;;;;;;-145.18;100.00;46627.19;4953356;28;20110;-68
2023/08/06 07:18:53;;;;;;;11.30;4.57;;;;;;;-145.18;100.00;46625.22;4953600;29;20122;-68
2023/08/06 07:21:19;;;;;;;11.07;5.13;;;;;;;-145.18;100.00;46627.19;4953308;28;20035;-69
2023/08/06 07:23:45;;;;;;;8.97;4.20;;;;;;;-145.18;100.00;46629.13;4953434;28;20038;-69
2023/08/06 07:26:10;;;;;;;7.93;4.57;;;;;;;-145.18;100.00;46623.28;4953090;28;20036;-68
2023/08/06 07:28:36;;;;;;;10.57;4.53;;;;;;;-145.18;100.00;46623.28;4953198;28;20171;-69
2023/08/06 07:31:03;;;;;;;10.53;5.17;;;;;;;-145.18;100.00;46621.31;4953164;29;20522;-69
2023/08/06 07:33:28;;;;;;;11.27;5.10;;;;;;;-145.18;100.00;46623.28;4953097;28;20035;-69
2023/08/06 07:35:54;;;;;;;8.37;4.47;;;;;;;-145.18;100.00;46627.19;4953479;28;20023;-69
2023/08/06 07:38:19;;;;;;;12.73;4.23;;;;;;;-145.18;100.00;46623.28;4953322;28;20031;-69
2023/08/06 07:40:45;;;;;;;9.00;3.93;;;;;;;-145.18;100.00;46621.31;4953443;28;20534;-68
2023/08/06 07:43:10;;;;;;;8.33;3.70;;;;;;;-145.18;100.00;46623.28;4955070;28;20035;-69
2023/08/06 07:45:36;;;;;;;9.20;4.83;;;;;;;-145.18;100.00;46621.31;4955095;28;20119;-69
2023/08/06 07:48:02;;;;;;;6.93;3.80;;;;;;;-145.18;100.00;46619.38;4956590;28;20035;-69
2023/08/06 07:50:27;;;;;;;9.00;4.37;;;;;;;-145.18;100.00;46625.22;4955027;28;20090;-68
2023/08/06 07:52:53;;;;;;;8.13;3.73;;;;;;;-145.18;100.00;46627.19;4956821;29;20039;-69
2023/08/06 07:55:18;;;;;;;29.63;5.37;;;;;;;-145.18;100.00;46619.38;4956550;28;20394;-69
2023/08/06 07:57:43;;;;;;;10.77;2.77;;;;;;;-145.18;100.00;46623.28;4956298;29;20039;-68
2023/08/06 08:00:09;;;;;;;9.07;2.97;;;;;;;-145.18;100.00;46623.28;4951353;28;20059;-68
2023/08/06 08:02:35;;;;;;;9.90;2.63;;;;;;;-145.18;100.00;46621.31;4956449;28;20042;-68
2023/08/06 08:05:00;;;;;;;6.20;2.30;;;;;;;-145.18;100.00;46621.31;4955823;28;20479;-68
2023/08/06 08:07:28;;;;;;;7.63;2.30;;;;;;;-145.18;100.00;46621.31;4956197;28;20039;-69
2023/08/06 08:09:53;;;;;;;3.47;1.80;;;;;;;-145.18;100.00;46621.31;4955292;29;20559;-68
2023/08/06 08:12:19;;;;;;;3.67;1.60;;;;;;;-145.18;100.00;46625.22;4956216;28;20118;-68
2023/08/06 08:14:45;;;;;;;6.10;2.00;;;;;;;-145.18;100.00;46623.28;4958651;28;20042;-68
2023/08/06 08:17:11;;;;;;;2.93;1.67;;;;;;;-145.18;100.00;46621.31;4951381;28;20063;-68
2023/08/06 08:19:36;;;;;;;4.47;1.47;;;;;;;-145.18;100.00;46621.31;4950048;28;20406;-68
2023/08/06 08:22:03;;;;;;;4.80;1.40;;;;;;;-145.18;100.00;46627.19;4954850;29;20041;-68
2023/08/06 08:24:30;;;;;;;7.47;1.83;;;;;;;-145.18;100.00;46625.22;4954486;28;20487;-68
2023/08/06 08:26:56;;;;;;;3.67;1.60;;;;;;;-145.18;100.00;46621.31;4955370;28;20472;-68
2023/08/06 08:29:22;;;;;;;7.60;1.80;;;;;;;-145.18;100.00;46625.22;4954397;29;20118;-68
2023/08/06 08:31:49;;;;;;;7.80;1.90;;;;;;;-145.18;100.00;46625.22;4953129;29;20055;-68
2023/08/06 08:34:15;;;;;;;6.13;1.40;;;;;;;-145.18;100.00;46631.09;4954382;28;20117;-68
2023/08/06 08:36:40;;;;;;;5.20;2.03;;;;;;;-145.18;100.00;46631.09;4954195;28;20762;-68
2023/08/06 08:39:06;;;;;;;4.80;1.83;;;;;;;-145.18;100.00;46633.06;4936941;28;20063;-68
2023/08/06 08:41:32;;;;;;;4.27;1.90;;;;;;;-145.18;100.00;46633.06;4954202;29;20122;-68
2023/08/06 08:44:00;;;;;;;2.33;1.50;;;;;;;-145.18;100.00;46633.06;4954239;28;20070;-68
2023/08/06 08:46:38;;;;;;;3.33;2.13;;;;;;;-145.18;100.00;46633.06;4954341;28;20031;-68
2023/08/06 08:49:04;;;;;;;6.47;2.37;;;;;;;-145.18;100.00;46636.94;4954198;28;20058;-68
2023/08/06 08:51:31;;;;;;;5.60;1.90;;;;;;;-145.18;100.00;46633.06;4953590;28;20490;-68
2023/08/06 08:53:57;;;;;;;5.33;2.30;;;;;;;-145.18;100.00;46631.09;4951495;28;20118;-68
2023/08/06 08:56:23;;;;;;;3.53;2.10;;;;;;;-145.18;100.00;46629.13;4954124;28;20034;-68
2023/08/06 08:58:49;;;;;;;4.53;2.20;;;;;;;-145.18;100.00;46633.06;4953732;28;20035;-68
2023/08/06 09:01:15;;;;;;;6.47;1.77;;;;;;;-145.18;100.00;46631.09;4953608;28;20476;-68
2023/08/06 09:03:43;;;;;;;6.80;1.97;;;;;;;-145.18;100.00;46629.13;4954165;28;20046;-68
2023/08/06 09:06:11;;;;;;;4.97;2.53;;;;;;;-145.18;100.00;46635.00;4953989;28;20037;-68
2023/08/06 09:08:41;;;;;;;3.93;2.43;;;;;;;-145.18;100.00;46635.00;4953929;28;20031;-68
2023/08/06 09:11:10;;;;;;;5.37;2.37;;;;;;;-145.18;100.00;46633.06;4953371;28;20062;-68
2023/08/06 09:13:37;;;;;;;5.70;2.20;;;;;;;-145.18;100.00;46636.94;4953544;28;20047;-68
2023/08/06 09:16:03;;;;;;;4.70;2.23;;;;;;;-145.18;100.00;46638.91;4953465;28;20041;-68
2023/08/06 09:18:30;;;;;;;4.97;1.97;;;;;;;-145.18;100.00;46640.88;4951732;28;20118;-68
2023/08/06 09:20:57;;;;;;;5.27;2.03;;;;;;;-145.18;100.00;46636.94;4953697;28;20043;-68
2023/08/06 09:23:33;;;;;;;4.93;1.90;;;;;;;-145.18;100.00;46636.94;4950708;28;20131;-68
2023/08/06 09:25:59;;;;;;;4.50;1.80;;;;;;;-145.18;100.00;46636.94;4939988;29;20071;-69
2023/08/06 09:28:24;;;;;;;4.83;2.20;;;;;;;-145.18;100.00;46642.81;4945552;28;20062;-69
2023/08/06 09:30:50;;;;;;;7.37;1.80;;;;;;;-145.18;100.00;46642.81;4952478;29;20055;-68
2023/08/06 09:33:19;;;;;;;6.27;2.20;;;;;;;-145.18;100.00;46638.91;4945786;28;20035;-68
2023/08/06 09:35:46;;;;;;;4.83;1.80;;;;;;;-145.18;100.00;46642.81;4945507;28;20039;-68
2023/08/06 09:38:12;;;;;;;5.27;1.90;;;;;;;-145.18;100.00;46638.91;4952883;28;20050;-68
2023/08/06 09:40:39;;;;;;;5.70;2.37;;;;;;;-145.18;100.00;46640.88;4952680;28;20047;-68
2023/08/06 09:43:07;;;;;;;6.93;2.10;;;;;;;-145.18;100.00;46640.88;4951290;29;20039;-69
2023/08/06 09:45:37;;;;;;;9.90;2.83;;;;;;;-145.18;100.00;46642.81;4951660;29;20117;-68
2023/08/06 09:48:07;;;;;;;4.10;2.10;;;;;;;-145.18;100.00;46638.91;4953275;28;20118;-69
2023/08/06 09:50:37;;;;;;;3.70;1.73;;;;;;;-145.18;100.00;46644.78;4949106;28;20495;-68
2023/08/06 09:53:07;;;;;;;6.30;1.63;;;;;;;-145.18;100.00;46640.88;4952848;28;20027;-68
2023/08/06 09:55:33;;;;;;;4.13;2.00;;;;;;;-145.18;100.00;46642.81;4948446;28;20039;-68
2023/08/06 09:57:59;;;;;;;5.73;1.83;;;;;;;-145.18;100.00;46644.78;4952500;28;20039;-69
2023/08/06 10:00:25;;;;;;;4.87;2.07;;;;;;;-145.18;100.00;46640.88;4952046;28;20063;-69
2023/08/06 10:02:54;;;;;;;3.73;2.10;;;;;;;-145.18;100.00;46644.78;4947719;28;20039;-68
2023/08/06 10:05:21;;;;;;;3.83;1.40;;;;;;;-145.18;100.00;46644.78;4951640;28;20034;-68
2023/08/06 10:07:47;;;;;;;3.83;1.53;;;;;;;-145.18;100.00;46644.78;4952869;28;20055;-68
2023/08/06 10:10:12;;;;;;;4.97;2.20;;;;;;;-145.18;100.00;46644.78;4952120;28;20027;-68
2023/08/06 10:12:42;;;;;;;6.23;1.90;;;;;;;-145.18;100.00;46642.81;4952534;28;20047;-68
2023/08/06 10:15:12;;;;;;;4.13;1.80;;;;;;;-145.18;100.00;46646.72;4951709;28;20031;-68
2023/08/06 10:17:39;;;;;;;4.33;1.80;;;;;;;-145.18;100.00;46652.59;4952362;28;20113;-68
2023/08/06 10:20:07;;;;;;;5.60;2.07;;;;;;;-145.18;100.00;46646.72;4947532;28;20036;-69
2023/08/06 10:22:33;;;;;;;4.17;1.70;;;;;;;-145.18;100.00;46644.78;4944615;29;20031;-68
2023/08/06 10:25:04;;;;;;;4.57;1.60;;;;;;;-145.18;100.00;46648.69;4952270;28;20039;-69
2023/08/06 10:27:34;;;;;;;3.60;1.80;;;;;;;-145.18;100.00;46650.63;4949975;28;20117;-68
2023/08/06 10:30:25;;;;;;;3.77;1.67;;;;;;;-145.18;100.00;46652.59;4951678;28;20398;-68
2023/08/06 10:32:53;;;;;;;2.07;1.40;;;;;;;-145.18;100.00;46656.50;4951878;28;20065;-68
2023/08/06 10:35:28;;;;;;;3.43;1.50;;;;;;;-145.18;100.00;46666.25;4951911;28;20470;-68
2023/08/06 10:37:57;;;;;;;5.47;1.60;;;;;;;-145.18;100.00;46666.25;4951954;28;20487;-69
2023/08/06 10:40:24;;;;;;;5.17;1.97;;;;;;;-145.18;100.00;46666.25;4946088;28;20044;-68
2023/08/06 10:42:49;;;;;;;4.00;1.47;;;;;;;-145.18;100.00;46672.13;4950508;28;20503;-68
2023/08/06 10:45:16;;;;;;;4.13;1.50;;;;;;;-145.18;100.00;46672.13;4951997;28;20118;-68
2023/08/06 10:47:42;;;;;;;4.97;1.67;;;;;;;-145.18;100.00;46676.03;4952344;28;20035;-68
2023/08/06 10:50:16;;;;;;;2.20;1.13;;;;;;;-145.18;100.00;46676.03;4952271;28;20051;-68
2023/08/06 10:52:43;;;;;;;3.30;1.57;;;;;;;-145.18;100.00;46683.84;4942052;29;20032;-68
2023/08/06 10:55:09;;;;;;;2.73;1.20;;;;;;;-145.18;100.00;46683.84;4952222;28;20027;-68
2023/08/06 10:57:34;;;;;;;3.87;1.30;;;;;;;-145.18;100.00;46683.84;4951768;28;20054;-68
2023/08/06 11:00:00;;;;;;;3.73;1.77;;;;;;;-145.18;100.00;46689.69;4951964;28;20534;-68
2023/08/06 11:02:25;;;;;;;5.43;2.00;;;;;;;-145.18;100.00;46683.84;4952076;28;20559;-68
2023/08/06 11:04:51;;;;;;;1.97;1.10;;;;;;;-145.18;100.00;46691.66;4951762;28;20468;-68
2023/08/06 11:07:16;;;;;;;1.57;0.97;;;;;;;-145.18;100.00;46689.69;4951783;29;20027;-68